sensor_id;sensor_type;location;lat;lon;timestamp;P1;durP1;ratioP1;P2;durP2;ratioP2
37545;SDS011;23389;52.484;13.572;2023-04-28T00:01:35;13.23;;;8.87;;
37545;SDS011;23389;52.484;13.572;2023-04-28T00:04:00;16.63;;;9.48;;
37545;SDS011;23389;52.484;13.572;2023-04-28T00:06:25;14.93;;;8.50;;
37545;SDS011;23389;52.484;13.572;2023-04-28T00:08:50;15.82;;;8.65;;
37545;SDS011;23389;52.484;13.572;2023-04-28T00:11:15;13.57;;;7.75;;
37545;SDS011;23389;52.484;13.572;2023-04-28T00:13:41;13.85;;;8.30;;
37545;SDS011;23389;52.484;13.572;2023-04-28T00:16:06;13.60;;;8.13;;
37545;SDS011;23389;52.484;13.572;2023-04-28T00:18:31;13.85;;;8.50;;
37545;SDS011;23389;52.484;13.572;2023-04-28T00:20:57;12.98;;;7.32;;
37545;SDS011;23389;52.484;13.572;2023-04-28T00:23:22;14.02;;;8.13;;
37545;SDS011;23389;52.484;13.572;2023-04-28T00:25:51;11.70;;;7.57;;
37545;SDS011;23389;52.484;13.572;2023-04-28T00:28:16;12.80;;;7.70;;
37545;SDS011;23389;52.484;13.572;2023-04-28T00:30:41;12.87;;;7.50;;
37545;SDS011;23389;52.484;13.572;2023-04-28T00:33:06;12.63;;;7.72;;
37545;SDS011;23389;52.484;13.572;2023-04-28T00:35:32;13.38;;;7.32;;
37545;SDS011;23389;52.484;13.572;2023-04-28T00:37:57;13.73;;;8.40;;
37545;SDS011;23389;52.484;13.572;2023-04-28T00:40:22;15.05;;;7.97;;
37545;SDS011;23389;52.484;13.572;2023-04-28T00:42:47;13.67;;;8.17;;
37545;SDS011;23389;52.484;13.572;2023-04-28T00:45:12;14.25;;;7.60;;
37545;SDS011;23389;52.484;13.572;2023-04-28T00:47:38;12.95;;;7.60;;
37545;SDS011;23389;52.484;13.572;2023-04-28T00:50:03;11.45;;;6.75;;
37545;SDS011;23389;52.484;13.572;2023-04-28T00:52:32;13.18;;;6.65;;
37545;SDS011;23389;52.484;13.572;2023-04-28T00:54:57;12.23;;;7.13;;
37545;SDS011;23389;52.484;13.572;2023-04-28T00:57:22;11.15;;;7.10;;
37545;SDS011;23389;52.484;13.572;2023-04-28T00:59:47;14.70;;;7.20;;
37545;SDS011;23389;52.484;13.572;2023-04-28T01:02:13;13.00;;;6.83;;
37545;SDS011;23389;52.484;13.572;2023-04-28T01:04:41;9.63;;;6.30;;
37545;SDS011;23389;52.484;13.572;2023-04-28T01:07:06;11.68;;;7.00;;
37545;SDS011;23389;52.484;13.572;2023-04-28T01:09:32;13.70;;;6.80;;
37545;SDS011;23389;52.484;13.572;2023-04-28T01:11:57;10.05;;;6.30;;
37545;SDS011;23389;52.484;13.572;2023-04-28T01:14:22;9.68;;;6.70;;
37545;SDS011;23389;52.484;13.572;2023-04-28T01:16:47;11.43;;;7.23;;
37545;SDS011;23389;52.484;13.572;2023-04-28T01:19:17;12.35;;;6.53;;
37545;SDS011;23389;52.484;13.572;2023-04-28T01:21:43;11.82;;;7.13;;
37545;SDS011;23389;52.484;13.572;2023-04-28T01:24:08;12.70;;;6.15;;
37545;SDS011;23389;52.484;13.572;2023-04-28T01:26:34;11.15;;;6.65;;
37545;SDS011;23389;52.484;13.572;2023-04-28T01:28:59;12.55;;;6.55;;
37545;SDS011;23389;52.484;13.572;2023-04-28T01:31:24;12.02;;;6.57;;
37545;SDS011;23389;52.484;13.572;2023-04-28T01:33:49;11.40;;;6.00;;
37545;SDS011;23389;52.484;13.572;2023-04-28T01:36:14;9.68;;;6.13;;
37545;SDS011;23389;52.484;13.572;2023-04-28T01:38:39;10.82;;;6.00;;
37545;SDS011;23389;52.484;13.572;2023-04-28T01:41:04;12.20;;;5.90;;
37545;SDS011;23389;52.484;13.572;2023-04-28T01:43:30;12.27;;;6.63;;
37545;SDS011;23389;52.484;13.572;2023-04-28T01:45:55;9.35;;;6.00;;
37545;SDS011;23389;52.484;13.572;2023-04-28T01:48:20;10.70;;;6.05;;
37545;SDS011;23389;52.484;13.572;2023-04-28T01:50:45;11.63;;;6.55;;
37545;SDS011;23389;52.484;13.572;2023-04-28T01:53:10;11.00;;;6.38;;
37545;SDS011;23389;52.484;13.572;2023-04-28T01:55:36;11.45;;;6.72;;
37545;SDS011;23389;52.484;13.572;2023-04-28T01:58:01;12.40;;;6.32;;
37545;SDS011;23389;52.484;13.572;2023-04-28T02:00:26;10.90;;;6.43;;
37545;SDS011;23389;52.484;13.572;2023-04-28T02:02:51;10.68;;;6.15;;
37545;SDS011;23389;52.484;13.572;2023-04-28T02:05:17;10.77;;;6.25;;
37545;SDS011;23389;52.484;13.572;2023-04-28T02:07:42;11.75;;;6.30;;
37545;SDS011;23389;52.484;13.572;2023-04-28T02:10:07;11.00;;;6.18;;
37545;SDS011;23389;52.484;13.572;2023-04-28T02:12:32;11.35;;;6.18;;
37545;SDS011;23389;52.484;13.572;2023-04-28T02:14:57;11.85;;;6.18;;
37545;SDS011;23389;52.484;13.572;2023-04-28T02:17:23;11.18;;;6.68;;
37545;SDS011;23389;52.484;13.572;2023-04-28T02:19:53;9.88;;;5.80;;
37545;SDS011;23389;52.484;13.572;2023-04-28T02:22:18;11.02;;;6.30;;
37545;SDS011;23389;52.484;13.572;2023-04-28T02:24:43;11.50;;;5.93;;
37545;SDS011;23389;52.484;13.572;2023-04-28T02:27:08;12.45;;;6.32;;
37545;SDS011;23389;52.484;13.572;2023-04-28T02:29:33;10.90;;;6.40;;
37545;SDS011;23389;52.484;13.572;2023-04-28T02:31:58;10.83;;;5.57;;
37545;SDS011;23389;52.484;13.572;2023-04-28T02:34:23;9.80;;;5.60;;
37545;SDS011;23389;52.484;13.572;2023-04-28T02:36:49;9.70;;;5.73;;
37545;SDS011;23389;52.484;13.572;2023-04-28T02:39:14;8.95;;;5.82;;
37545;SDS011;23389;52.484;13.572;2023-04-28T02:41:39;9.07;;;5.78;;
37545;SDS011;23389;52.484;13.572;2023-04-28T02:44:04;9.52;;;5.30;;
37545;SDS011;23389;52.484;13.572;2023-04-28T02:46:29;10.57;;;5.90;;
37545;SDS011;23389;52.484;13.572;2023-04-28T02:48:54;9.30;;;5.30;;
37545;SDS011;23389;52.484;13.572;2023-04-28T02:51:20;9.48;;;5.60;;
37545;SDS011;23389;52.484;13.572;2023-04-28T02:53:45;13.53;;;5.73;;
37545;SDS011;23389;52.484;13.572;2023-04-28T02:56:10;13.45;;;6.32;;
37545;SDS011;23389;52.484;13.572;2023-04-28T02:58:35;12.13;;;5.88;;
37545;SDS011;23389;52.484;13.572;2023-04-28T03:01:00;9.57;;;5.57;;
37545;SDS011;23389;52.484;13.572;2023-04-28T03:03:26;8.13;;;5.32;;
37545;SDS011;23389;52.484;13.572;2023-04-28T03:05:51;9.48;;;5.78;;
37545;SDS011;23389;52.484;13.572;2023-04-28T03:08:16;11.40;;;5.57;;
37545;SDS011;23389;52.484;13.572;2023-04-28T03:10:41;8.48;;;5.35;;
37545;SDS011;23389;52.484;13.572;2023-04-28T03:13:06;9.25;;;4.78;;
37545;SDS011;23389;52.484;13.572;2023-04-28T03:15:31;11.10;;;5.18;;
37545;SDS011;23389;52.484;13.572;2023-04-28T03:17:56;10.17;;;5.47;;
37545;SDS011;23389;52.484;13.572;2023-04-28T03:20:22;9.52;;;5.10;;
37545;SDS011;23389;52.484;13.572;2023-04-28T03:22:47;11.23;;;5.40;;
37545;SDS011;23389;52.484;13.572;2023-04-28T03:25:12;11.10;;;5.50;;
37545;SDS011;23389;52.484;13.572;2023-04-28T03:27:37;11.55;;;5.63;;
37545;SDS011;23389;52.484;13.572;2023-04-28T03:30:02;10.70;;;5.43;;
37545;SDS011;23389;52.484;13.572;2023-04-28T03:32:27;10.57;;;5.20;;
37545;SDS011;23389;52.484;13.572;2023-04-28T03:34:52;10.15;;;5.30;;
37545;SDS011;23389;52.484;13.572;2023-04-28T03:37:18;9.00;;;5.45;;
37545;SDS011;23389;52.484;13.572;2023-04-28T03:39:43;9.40;;;5.03;;
37545;SDS011;23389;52.484;13.572;2023-04-28T03:42:08;10.17;;;5.83;;
37545;SDS011;23389;52.484;13.572;2023-04-28T03:44:33;10.53;;;5.03;;
37545;SDS011;23389;52.484;13.572;2023-04-28T03:46:58;10.35;;;4.90;;
37545;SDS011;23389;52.484;13.572;2023-04-28T03:49:23;8.77;;;5.22;;
37545;SDS011;23389;52.484;13.572;2023-04-28T03:51:49;9.25;;;5.45;;
37545;SDS011;23389;52.484;13.572;2023-04-28T03:54:15;9.85;;;5.20;;
37545;SDS011;23389;52.484;13.572;2023-04-28T03:56:40;10.80;;;5.03;;
37545;SDS011;23389;52.484;13.572;2023-04-28T03:59:05;8.85;;;4.78;;
37545;SDS011;23389;52.484;13.572;2023-04-28T04:01:30;8.00;;;5.00;;
37545;SDS011;23389;52.484;13.572;2023-04-28T04:03:56;8.55;;;4.88;;
37545;SDS011;23389;52.484;13.572;2023-04-28T04:06:21;10.30;;;4.88;;
37545;SDS011;23389;52.484;13.572;2023-04-28T04:08:46;10.32;;;5.50;;
37545;SDS011;23389;52.484;13.572;2023-04-28T04:11:11;11.13;;;5.63;;
37545;SDS011;23389;52.484;13.572;2023-04-28T04:13:36;12.60;;;5.25;;
37545;SDS011;23389;52.484;13.572;2023-04-28T04:16:01;8.55;;;5.20;;
37545;SDS011;23389;52.484;13.572;2023-04-28T04:18:27;8.57;;;5.07;;
37545;SDS011;23389;52.484;13.572;2023-04-28T04:20:52;9.77;;;4.90;;
37545;SDS011;23389;52.484;13.572;2023-04-28T04:23:19;9.48;;;5.05;;
37545;SDS011;23389;52.484;13.572;2023-04-28T04:25:44;9.77;;;4.87;;
37545;SDS011;23389;52.484;13.572;2023-04-28T04:28:10;9.38;;;5.07;;
37545;SDS011;23389;52.484;13.572;2023-04-28T04:30:35;8.35;;;4.90;;
37545;SDS011;23389;52.484;13.572;2023-04-28T04:33:00;12.95;;;5.32;;
37545;SDS011;23389;52.484;13.572;2023-04-28T04:35:25;8.90;;;5.07;;
37545;SDS011;23389;52.484;13.572;2023-04-28T04:37:50;10.45;;;5.22;;
37545;SDS011;23389;52.484;13.572;2023-04-28T04:40:15;9.77;;;5.10;;
37545;SDS011;23389;52.484;13.572;2023-04-28T04:42:40;11.57;;;5.65;;
37545;SDS011;23389;52.484;13.572;2023-04-28T04:45:06;11.68;;;4.70;;
37545;SDS011;23389;52.484;13.572;2023-04-28T04:47:31;14.00;;;5.18;;
37545;SDS011;23389;52.484;13.572;2023-04-28T04:49:56;9.40;;;4.90;;
37545;SDS011;23389;52.484;13.572;2023-04-28T04:52:21;9.95;;;4.45;;
37545;SDS011;23389;52.484;13.572;2023-04-28T04:54:47;9.27;;;5.03;;
37545;SDS011;23389;52.484;13.572;2023-04-28T04:57:12;10.48;;;5.18;;
37545;SDS011;23389;52.484;13.572;2023-04-28T04:59:37;9.48;;;4.72;;
37545;SDS011;23389;52.484;13.572;2023-04-28T05:02:02;10.60;;;5.18;;
37545;SDS011;23389;52.484;13.572;2023-04-28T05:04:28;11.32;;;4.90;;
37545;SDS011;23389;52.484;13.572;2023-04-28T05:06:53;12.02;;;4.88;;
37545;SDS011;23389;52.484;13.572;2023-04-28T05:09:18;9.33;;;5.30;;
37545;SDS011;23389;52.484;13.572;2023-04-28T05:11:43;10.38;;;4.68;;
37545;SDS011;23389;52.484;13.572;2023-04-28T05:14:09;9.93;;;4.50;;
37545;SDS011;23389;52.484;13.572;2023-04-28T05:16:34;15.03;;;4.77;;
37545;SDS011;23389;52.484;13.572;2023-04-28T05:18:59;12.85;;;4.90;;
37545;SDS011;23389;52.484;13.572;2023-04-28T05:21:25;10.13;;;4.65;;
37545;SDS011;23389;52.484;13.572;2023-04-28T05:23:50;10.23;;;4.80;;
37545;SDS011;23389;52.484;13.572;2023-04-28T05:26:15;11.10;;;5.25;;
37545;SDS011;23389;52.484;13.572;2023-04-28T05:28:40;11.88;;;5.80;;
37545;SDS011;23389;52.484;13.572;2023-04-28T05:31:05;11.00;;;5.30;;
37545;SDS011;23389;52.484;13.572;2023-04-28T05:33:31;14.05;;;6.22;;
37545;SDS011;23389;52.484;13.572;2023-04-28T05:35:56;11.80;;;5.70;;
37545;SDS011;23389;52.484;13.572;2023-04-28T05:38:21;15.00;;;6.03;;
37545;SDS011;23389;52.484;13.572;2023-04-28T05:40:46;12.13;;;6.40;;
37545;SDS011;23389;52.484;13.572;2023-04-28T05:43:11;14.30;;;6.13;;
37545;SDS011;23389;52.484;13.572;2023-04-28T05:45:36;10.35;;;5.75;;
37545;SDS011;23389;52.484;13.572;2023-04-28T05:48:02;11.93;;;5.53;;
37545;SDS011;23389;52.484;13.572;2023-04-28T05:50:28;10.15;;;5.63;;
37545;SDS011;23389;52.484;13.572;2023-04-28T05:52:53;10.63;;;5.70;;
37545;SDS011;23389;52.484;13.572;2023-04-28T05:55:19;11.77;;;6.32;;
37545;SDS011;23389;52.484;13.572;2023-04-28T05:57:44;14.27;;;5.95;;
37545;SDS011;23389;52.484;13.572;2023-04-28T06:00:09;11.00;;;5.23;;
37545;SDS011;23389;52.484;13.572;2023-04-28T06:02:34;10.50;;;5.70;;
37545;SDS011;23389;52.484;13.572;2023-04-28T06:05:00;10.87;;;5.10;;
37545;SDS011;23389;52.484;13.572;2023-04-28T06:07:25;9.70;;;4.63;;
37545;SDS011;23389;52.484;13.572;2023-04-28T06:09:50;9.88;;;5.00;;
37545;SDS011;23389;52.484;13.572;2023-04-28T06:12:15;10.60;;;5.40;;
37545;SDS011;23389;52.484;13.572;2023-04-28T06:14:40;10.80;;;5.23;;
37545;SDS011;23389;52.484;13.572;2023-04-28T06:17:05;12.13;;;5.07;;
37545;SDS011;23389;52.484;13.572;2023-04-28T06:19:30;10.70;;;4.80;;
37545;SDS011;23389;52.484;13.572;2023-04-28T06:21:55;11.60;;;5.47;;
37545;SDS011;23389;52.484;13.572;2023-04-28T06:24:21;12.47;;;4.60;;
37545;SDS011;23389;52.484;13.572;2023-04-28T06:26:46;8.88;;;3.92;;
37545;SDS011;23389;52.484;13.572;2023-04-28T06:29:11;9.77;;;4.60;;
37545;SDS011;23389;52.484;13.572;2023-04-28T06:31:36;9.70;;;4.38;;
37545;SDS011;23389;52.484;13.572;2023-04-28T06:34:01;11.18;;;4.38;;
37545;SDS011;23389;52.484;13.572;2023-04-28T06:36:26;7.75;;;3.78;;
37545;SDS011;23389;52.484;13.572;2023-04-28T06:38:52;11.48;;;4.47;;
37545;SDS011;23389;52.484;13.572;2023-04-28T06:41:17;8.52;;;3.50;;
37545;SDS011;23389;52.484;13.572;2023-04-28T06:43:42;6.53;;;3.30;;
37545;SDS011;23389;52.484;13.572;2023-04-28T06:46:07;9.60;;;3.85;;
37545;SDS011;23389;52.484;13.572;2023-04-28T06:48:32;9.43;;;4.73;;
37545;SDS011;23389;52.484;13.572;2023-04-28T06:50:57;8.63;;;3.50;;
37545;SDS011;23389;52.484;13.572;2023-04-28T06:53:22;8.93;;;3.33;;
37545;SDS011;23389;52.484;13.572;2023-04-28T06:55:48;8.17;;;3.50;;
37545;SDS011;23389;52.484;13.572;2023-04-28T06:58:13;7.95;;;3.13;;
37545;SDS011;23389;52.484;13.572;2023-04-28T07:00:38;8.67;;;3.70;;
37545;SDS011;23389;52.484;13.572;2023-04-28T07:03:03;7.32;;;3.15;;
37545;SDS011;23389;52.484;13.572;2023-04-28T07:05:28;10.00;;;3.90;;
37545;SDS011;23389;52.484;13.572;2023-04-28T07:07:53;8.23;;;3.67;;
37545;SDS011;23389;52.484;13.572;2023-04-28T07:10:18;6.82;;;3.28;;
37545;SDS011;23389;52.484;13.572;2023-04-28T07:12:44;12.02;;;3.42;;
37545;SDS011;23389;52.484;13.572;2023-04-28T07:15:09;6.20;;;3.20;;
37545;SDS011;23389;52.484;13.572;2023-04-28T07:17:34;6.55;;;3.10;;
37545;SDS011;23389;52.484;13.572;2023-04-28T07:19:59;7.13;;;3.67;;
37545;SDS011;23389;52.484;13.572;2023-04-28T07:22:24;6.60;;;3.50;;
37545;SDS011;23389;52.484;13.572;2023-04-28T07:24:50;7.50;;;3.10;;
37545;SDS011;23389;52.484;13.572;2023-04-28T07:27:15;7.00;;;3.10;;
37545;SDS011;23389;52.484;13.572;2023-04-28T07:29:40;6.97;;;3.20;;
37545;SDS011;23389;52.484;13.572;2023-04-28T07:32:05;10.82;;;3.72;;
37545;SDS011;23389;52.484;13.572;2023-04-28T07:34:32;7.95;;;4.22;;
37545;SDS011;23389;52.484;13.572;2023-04-28T07:36:58;8.77;;;3.70;;
37545;SDS011;23389;52.484;13.572;2023-04-28T07:39:23;9.55;;;3.28;;
37545;SDS011;23389;52.484;13.572;2023-04-28T07:41:48;8.68;;;4.05;;
37545;SDS011;23389;52.484;13.572;2023-04-28T07:44:13;6.63;;;3.28;;
37545;SDS011;23389;52.484;13.572;2023-04-28T07:46:38;7.25;;;3.85;;
37545;SDS011;23389;52.484;13.572;2023-04-28T07:49:04;8.38;;;3.55;;
37545;SDS011;23389;52.484;13.572;2023-04-28T07:51:29;9.60;;;3.53;;
37545;SDS011;23389;52.484;13.572;2023-04-28T07:53:55;9.40;;;3.83;;
37545;SDS011;23389;52.484;13.572;2023-04-28T07:56:20;9.43;;;3.58;;
37545;SDS011;23389;52.484;13.572;2023-04-28T07:58:45;8.70;;;3.28;;
37545;SDS011;23389;52.484;13.572;2023-04-28T08:01:11;8.10;;;3.43;;
37545;SDS011;23389;52.484;13.572;2023-04-28T08:03:36;9.37;;;4.10;;
37545;SDS011;23389;52.484;13.572;2023-04-28T08:06:01;10.70;;;4.05;;
37545;SDS011;23389;52.484;13.572;2023-04-28T08:08:26;8.98;;;3.75;;
37545;SDS011;23389;52.484;13.572;2023-04-28T08:10:51;9.50;;;3.30;;
37545;SDS011;23389;52.484;13.572;2023-04-28T08:13:16;8.77;;;3.83;;
37545;SDS011;23389;52.484;13.572;2023-04-28T08:15:42;7.85;;;3.60;;
37545;SDS011;23389;52.484;13.572;2023-04-28T08:18:07;9.10;;;3.90;;
37545;SDS011;23389;52.484;13.572;2023-04-28T08:20:32;11.60;;;3.80;;
37545;SDS011;23389;52.484;13.572;2023-04-28T08:22:57;7.60;;;3.87;;
37545;SDS011;23389;52.484;13.572;2023-04-28T08:25:23;8.13;;;3.45;;
37545;SDS011;23389;52.484;13.572;2023-04-28T08:27:48;6.77;;;2.83;;
37545;SDS011;23389;52.484;13.572;2023-04-28T08:30:13;7.63;;;3.35;;
37545;SDS011;23389;52.484;13.572;2023-04-28T08:32:38;7.28;;;3.53;;
37545;SDS011;23389;52.484;13.572;2023-04-28T08:35:03;8.90;;;3.58;;
37545;SDS011;23389;52.484;13.572;2023-04-28T08:37:28;7.85;;;3.75;;
37545;SDS011;23389;52.484;13.572;2023-04-28T08:39:54;7.25;;;3.50;;
37545;SDS011;23389;52.484;13.572;2023-04-28T08:42:27;8.43;;;3.22;;
37545;SDS011;23389;52.484;13.572;2023-04-28T08:44:53;6.38;;;3.30;;
37545;SDS011;23389;52.484;13.572;2023-04-28T08:47:23;8.00;;;3.58;;
37545;SDS011;23389;52.484;13.572;2023-04-28T08:49:48;10.25;;;3.53;;
37545;SDS011;23389;52.484;13.572;2023-04-28T08:52:15;9.43;;;4.07;;
37545;SDS011;23389;52.484;13.572;2023-04-28T08:54:41;10.85;;;3.83;;
37545;SDS011;23389;52.484;13.572;2023-04-28T08:57:07;8.82;;;3.33;;
37545;SDS011;23389;52.484;13.572;2023-04-28T08:59:33;9.00;;;4.18;;
37545;SDS011;23389;52.484;13.572;2023-04-28T09:01:58;10.00;;;3.77;;
37545;SDS011;23389;52.484;13.572;2023-04-28T09:04:24;12.95;;;4.35;;
37545;SDS011;23389;52.484;13.572;2023-04-28T09:06:49;9.63;;;4.63;;
37545;SDS011;23389;52.484;13.572;2023-04-28T09:09:24;10.10;;;4.43;;
37545;SDS011;23389;52.484;13.572;2023-04-28T09:11:50;10.23;;;4.00;;
37545;SDS011;23389;52.484;13.572;2023-04-28T09:14:16;9.02;;;4.00;;
37545;SDS011;23389;52.484;13.572;2023-04-28T09:16:41;9.93;;;3.83;;
37545;SDS011;23389;52.484;13.572;2023-04-28T09:19:06;8.43;;;4.32;;
37545;SDS011;23389;52.484;13.572;2023-04-28T09:21:31;9.70;;;4.17;;
37545;SDS011;23389;52.484;13.572;2023-04-28T09:23:57;8.05;;;4.15;;
37545;SDS011;23389;52.484;13.572;2023-04-28T09:26:22;8.27;;;3.95;;
37545;SDS011;23389;52.484;13.572;2023-04-28T09:28:48;7.70;;;3.63;;
37545;SDS011;23389;52.484;13.572;2023-04-28T09:31:20;8.50;;;3.92;;
37545;SDS011;23389;52.484;13.572;2023-04-28T09:34:06;9.38;;;4.30;;
37545;SDS011;23389;52.484;13.572;2023-04-28T09:36:33;10.07;;;3.90;;
37545;SDS011;23389;52.484;13.572;2023-04-28T09:38:58;9.05;;;3.88;;
37545;SDS011;23389;52.484;13.572;2023-04-28T09:41:34;8.23;;;3.90;;
37545;SDS011;23389;52.484;13.572;2023-04-28T09:44:08;9.73;;;4.60;;
37545;SDS011;23389;52.484;13.572;2023-04-28T09:46:33;9.55;;;4.13;;
37545;SDS011;23389;52.484;13.572;2023-04-28T09:48:59;8.95;;;4.40;;
37545;SDS011;23389;52.484;13.572;2023-04-28T09:51:24;9.10;;;4.40;;
37545;SDS011;23389;52.484;13.572;2023-04-28T09:53:50;6.75;;;3.80;;
37545;SDS011;23389;52.484;13.572;2023-04-28T09:56:16;7.57;;;4.03;;
37545;SDS011;23389;52.484;13.572;2023-04-28T09:58:44;9.95;;;4.43;;
37545;SDS011;23389;52.484;13.572;2023-04-28T10:01:11;7.93;;;3.78;;
37545;SDS011;23389;52.484;13.572;2023-04-28T10:03:37;8.20;;;4.10;;
37545;SDS011;23389;52.484;13.572;2023-04-28T10:06:03;6.32;;;3.70;;
37545;SDS011;23389;52.484;13.572;2023-04-28T10:08:28;7.70;;;4.07;;
37545;SDS011;23389;52.484;13.572;2023-04-28T10:10:54;11.37;;;4.30;;
37545;SDS011;23389;52.484;13.572;2023-04-28T10:13:22;7.55;;;3.75;;
37545;SDS011;23389;52.484;13.572;2023-04-28T10:15:50;8.73;;;4.18;;
37545;SDS011;23389;52.484;13.572;2023-04-28T10:18:18;9.00;;;4.38;;
37545;SDS011;23389;52.484;13.572;2023-04-28T10:20:45;8.95;;;3.90;;
37545;SDS011;23389;52.484;13.572;2023-04-28T10:23:18;7.18;;;3.90;;
37545;SDS011;23389;52.484;13.572;2023-04-28T10:25:47;8.02;;;3.97;;
37545;SDS011;23389;52.484;13.572;2023-04-28T10:28:13;8.23;;;4.15;;
37545;SDS011;23389;52.484;13.572;2023-04-28T10:30:38;8.27;;;3.93;;
37545;SDS011;23389;52.484;13.572;2023-04-28T10:38:05;6.82;;;3.60;;
37545;SDS011;23389;52.484;13.572;2023-04-28T10:40:31;9.60;;;4.07;;
37545;SDS011;23389;52.484;13.572;2023-04-28T10:42:57;8.82;;;3.88;;
37545;SDS011;23389;52.484;13.572;2023-04-28T10:48:06;7.82;;;3.92;;
37545;SDS011;23389;52.484;13.572;2023-04-28T10:50:31;8.77;;;3.70;;
37545;SDS011;23389;52.484;13.572;2023-04-28T10:52:56;8.60;;;4.10;;
37545;SDS011;23389;52.484;13.572;2023-04-28T10:55:25;9.32;;;4.20;;
37545;SDS011;23389;52.484;13.572;2023-04-28T11:00:34;8.57;;;4.00;;
37545;SDS011;23389;52.484;13.572;2023-04-28T11:03:02;7.70;;;4.07;;
37545;SDS011;23389;52.484;13.572;2023-04-28T11:05:28;7.75;;;3.90;;
37545;SDS011;23389;52.484;13.572;2023-04-28T11:13:26;7.85;;;3.97;;
37545;SDS011;23389;52.484;13.572;2023-04-28T11:16:01;8.00;;;3.75;;
37545;SDS011;23389;52.484;13.572;2023-04-28T11:18:26;8.82;;;4.10;;
37545;SDS011;23389;52.484;13.572;2023-04-28T11:20:52;9.77;;;4.15;;
37545;SDS011;23389;52.484;13.572;2023-04-28T11:23:21;7.65;;;3.75;;
37545;SDS011;23389;52.484;13.572;2023-04-28T11:25:54;5.97;;;3.70;;
37545;SDS011;23389;52.484;13.572;2023-04-28T11:28:19;8.35;;;3.70;;
37545;SDS011;23389;52.484;13.572;2023-04-28T11:30:45;9.00;;;3.97;;
37545;SDS011;23389;52.484;13.572;2023-04-28T11:33:10;8.30;;;4.13;;
37545;SDS011;23389;52.484;13.572;2023-04-28T11:35:41;10.45;;;4.50;;
37545;SDS011;23389;52.484;13.572;2023-04-28T11:38:07;8.95;;;4.20;;
37545;SDS011;23389;52.484;13.572;2023-04-28T11:40:32;10.68;;;4.45;;
37545;SDS011;23389;52.484;13.572;2023-04-28T11:42:57;8.23;;;4.88;;
37545;SDS011;23389;52.484;13.572;2023-04-28T11:45:23;11.57;;;4.57;;
37545;SDS011;23389;52.484;13.572;2023-04-28T11:47:48;10.82;;;4.70;;
37545;SDS011;23389;52.484;13.572;2023-04-28T11:50:13;10.50;;;4.35;;
37545;SDS011;23389;52.484;13.572;2023-04-28T11:52:49;8.90;;;4.75;;
37545;SDS011;23389;52.484;13.572;2023-04-28T11:55:15;8.20;;;4.90;;
37545;SDS011;23389;52.484;13.572;2023-04-28T11:57:40;12.57;;;4.82;;
37545;SDS011;23389;52.484;13.572;2023-04-28T12:00:12;8.63;;;4.45;;
37545;SDS011;23389;52.484;13.572;2023-04-28T12:02:38;8.80;;;4.03;;
37545;SDS011;23389;52.484;13.572;2023-04-28T12:05:04;7.85;;;4.32;;
37545;SDS011;23389;52.484;13.572;2023-04-28T12:07:29;8.25;;;3.88;;
37545;SDS011;23389;52.484;13.572;2023-04-28T12:10:10;9.45;;;4.50;;
37545;SDS011;23389;52.484;13.572;2023-04-28T12:12:35;8.60;;;4.78;;
37545;SDS011;23389;52.484;13.572;2023-04-28T12:15:02;10.30;;;4.82;;
37545;SDS011;23389;52.484;13.572;2023-04-28T12:19:54;9.45;;;4.30;;
37545;SDS011;23389;52.484;13.572;2023-04-28T12:22:19;9.05;;;4.60;;
37545;SDS011;23389;52.484;13.572;2023-04-28T12:24:45;10.35;;;5.50;;
37545;SDS011;23389;52.484;13.572;2023-04-28T12:27:17;10.13;;;4.40;;
37545;SDS011;23389;52.484;13.572;2023-04-28T12:29:44;11.82;;;4.72;;
37545;SDS011;23389;52.484;13.572;2023-04-28T12:32:10;9.80;;;4.57;;
37545;SDS011;23389;52.484;13.572;2023-04-28T12:34:36;7.50;;;4.43;;
37545;SDS011;23389;52.484;13.572;2023-04-28T12:37:01;8.73;;;4.18;;
37545;SDS011;23389;52.484;13.572;2023-04-28T12:39:27;9.23;;;4.25;;
37545;SDS011;23389;52.484;13.572;2023-04-28T12:41:52;8.60;;;4.60;;
37545;SDS011;23389;52.484;13.572;2023-04-28T12:44:19;7.53;;;4.40;;
37545;SDS011;23389;52.484;13.572;2023-04-28T12:46:44;10.20;;;4.70;;
37545;SDS011;23389;52.484;13.572;2023-04-28T12:49:10;9.53;;;4.60;;
37545;SDS011;23389;52.484;13.572;2023-04-28T12:51:35;9.80;;;4.72;;
37545;SDS011;23389;52.484;13.572;2023-04-28T12:54:00;8.27;;;5.25;;
37545;SDS011;23389;52.484;13.572;2023-04-28T12:56:25;9.43;;;4.70;;
37545;SDS011;23389;52.484;13.572;2023-04-28T12:58:51;8.75;;;4.40;;
37545;SDS011;23389;52.484;13.572;2023-04-28T13:01:16;10.13;;;4.50;;
37545;SDS011;23389;52.484;13.572;2023-04-28T13:03:41;10.93;;;5.00;;
37545;SDS011;23389;52.484;13.572;2023-04-28T13:06:08;10.60;;;4.40;;
37545;SDS011;23389;52.484;13.572;2023-04-28T13:08:34;7.05;;;4.72;;
37545;SDS011;23389;52.484;13.572;2023-04-28T13:11:00;11.82;;;4.63;;
37545;SDS011;23389;52.484;13.572;2023-04-28T13:13:25;9.07;;;4.17;;
37545;SDS011;23389;52.484;13.572;2023-04-28T13:15:50;11.15;;;5.28;;
37545;SDS011;23389;52.484;13.572;2023-04-28T13:18:15;10.53;;;5.03;;
37545;SDS011;23389;52.484;13.572;2023-04-28T13:20:40;8.00;;;4.80;;
37545;SDS011;23389;52.484;13.572;2023-04-28T13:23:06;10.90;;;4.85;;
37545;SDS011;23389;52.484;13.572;2023-04-28T13:25:31;12.60;;;4.80;;
37545;SDS011;23389;52.484;13.572;2023-04-28T13:27:56;10.90;;;4.88;;
37545;SDS011;23389;52.484;13.572;2023-04-28T13:30:21;8.35;;;3.80;;
37545;SDS011;23389;52.484;13.572;2023-04-28T13:32:46;11.35;;;4.72;;
37545;SDS011;23389;52.484;13.572;2023-04-28T13:35:12;9.77;;;4.63;;
37545;SDS011;23389;52.484;13.572;2023-04-28T13:37:37;9.43;;;4.07;;
37545;SDS011;23389;52.484;13.572;2023-04-28T13:40:06;9.63;;;4.97;;
37545;SDS011;23389;52.484;13.572;2023-04-28T13:42:32;9.15;;;4.22;;
37545;SDS011;23389;52.484;13.572;2023-04-28T13:44:58;8.15;;;4.10;;
37545;SDS011;23389;52.484;13.572;2023-04-28T13:47:23;8.63;;;4.47;;
37545;SDS011;23389;52.484;13.572;2023-04-28T13:49:48;8.50;;;4.25;;
37545;SDS011;23389;52.484;13.572;2023-04-28T13:52:14;8.57;;;4.10;;
37545;SDS011;23389;52.484;13.572;2023-04-28T13:54:40;11.45;;;4.95;;
37545;SDS011;23389;52.484;13.572;2023-04-28T13:57:05;9.38;;;4.30;;
37545;SDS011;23389;52.484;13.572;2023-04-28T13:59:30;9.73;;;4.20;;
37545;SDS011;23389;52.484;13.572;2023-04-28T14:01:55;9.83;;;4.67;;
37545;SDS011;23389;52.484;13.572;2023-04-28T14:04:20;9.27;;;4.30;;
37545;SDS011;23389;52.484;13.572;2023-04-28T14:06:46;10.05;;;4.68;;
37545;SDS011;23389;52.484;13.572;2023-04-28T14:09:12;9.00;;;4.80;;
37545;SDS011;23389;52.484;13.572;2023-04-28T14:11:37;7.70;;;4.07;;
37545;SDS011;23389;52.484;13.572;2023-04-28T14:14:02;9.73;;;4.65;;
37545;SDS011;23389;52.484;13.572;2023-04-28T14:16:28;11.55;;;4.53;;
37545;SDS011;23389;52.484;13.572;2023-04-28T14:18:54;9.75;;;4.68;;
37545;SDS011;23389;52.484;13.572;2023-04-28T14:21:19;10.23;;;4.30;;
37545;SDS011;23389;52.484;13.572;2023-04-28T14:23:44;9.52;;;4.78;;
37545;SDS011;23389;52.484;13.572;2023-04-28T14:26:10;9.43;;;4.20;;
37545;SDS011;23389;52.484;13.572;2023-04-28T14:28:35;10.95;;;4.45;;
37545;SDS011;23389;52.484;13.572;2023-04-28T14:31:04;8.63;;;4.22;;
37545;SDS011;23389;52.484;13.572;2023-04-28T14:33:32;8.98;;;4.25;;
37545;SDS011;23389;52.484;13.572;2023-04-28T14:35:57;8.88;;;4.43;;
37545;SDS011;23389;52.484;13.572;2023-04-28T14:38:24;8.50;;;3.47;;